createdAt,value
2022-10-02T00:02:37.307Z,93.65
2022-10-02T00:05:46.093Z,93.72
2022-10-02T00:08:51.273Z,93.80
2022-10-02T00:11:58.148Z,93.77
2022-10-02T00:15:06.568Z,93.83
2022-10-02T00:18:23.920Z,93.81
2022-10-02T00:21:34.916Z,93.80
2022-10-02T00:24:50.778Z,93.93
2022-10-02T00:28:20.212Z,93.88
2022-10-02T00:32:05.645Z,93.80
2022-10-02T00:35:49.878Z,93.98
2022-10-02T00:38:51.579Z,93.93
2022-10-02T00:42:11.921Z,93.87
2022-10-02T00:45:35.425Z,93.95
2022-10-02T00:48:43.222Z,93.99
2022-10-02T00:52:03.903Z,94.09
2022-10-02T00:55:30.361Z,94.43
2022-10-02T00:58:56.149Z,94.77
2022-10-02T01:02:01.269Z,95.03
2022-10-02T01:05:08.569Z,95.01
2022-10-02T01:08:10.521Z,95.04
2022-10-02T01:11:13.629Z,94.92
2022-10-02T01:14:15.536Z,94.97
2022-10-02T01:17:34.596Z,95.19
2022-10-02T01:20:42.789Z,95.58
2022-10-02T01:24:16.980Z,95.38
2022-10-02T01:27:19.377Z,95.60
2022-10-02T01:30:21.862Z,95.57
2022-10-02T01:33:23.985Z,95.65
2022-10-02T01:36:25.866Z,95.63
2022-10-02T01:39:27.656Z,95.50
2022-10-02T01:42:30.018Z,95.64
2022-10-02T01:45:40.880Z,95.65
2022-10-02T01:49:07.406Z,95.59
2022-10-02T01:52:40.144Z,95.97
2022-10-02T01:56:01.267Z,96.17
2022-10-02T01:59:05.749Z,96.11
2022-10-02T02:02:19.013Z,96.01
2022-10-02T02:05:32.271Z,96.46
2022-10-02T02:09:01.745Z,96.44
2022-10-02T02:12:28.533Z,96.59
2022-10-02T02:15:40.527Z,96.69
2022-10-02T02:18:53.800Z,96.62
2022-10-02T02:21:55.560Z,96.81
2022-10-02T02:25:04.812Z,96.73
2022-10-02T02:28:12.548Z,97.01
2022-10-02T02:31:18.740Z,97.01
2022-10-02T02:34:25.404Z,97.31
2022-10-02T02:37:31.997Z,97.47
2022-10-02T02:40:38.957Z,97.51
2022-10-02T02:43:49.765Z,97.55
2022-10-02T02:47:04.441Z,97.94
2022-10-02T02:50:23.437Z,98.07
2022-10-02T02:53:36.665Z,98.28
2022-10-02T02:56:41.986Z,98.28
2022-10-02T02:59:49.404Z,98.39
2022-10-02T03:02:54.529Z,98.27
2022-10-02T03:06:22.548Z,98.32
2022-10-02T03:09:26.519Z,98.49
2022-10-02T03:12:55.959Z,98.61
2022-10-02T03:16:45.066Z,98.77
2022-10-02T03:19:53.318Z,98.71
2022-10-02T03:23:12.270Z,99.11
2022-10-02T03:26:19.652Z,99.13
2022-10-02T03:29:28.620Z,98.94
2022-10-02T03:32:32.453Z,99.25
2022-10-02T03:35:34.456Z,99.10
2022-10-02T03:38:36.509Z,98.91
2022-10-02T03:41:38.218Z,98.99
2022-10-02T03:44:40.154Z,99.08
2022-10-02T03:47:41.907Z,99.23
2022-10-02T03:50:45.263Z,99.08
2022-10-02T03:53:47.056Z,98.95
2022-10-02T03:57:03.059Z,98.85
2022-10-02T04:00:13.069Z,98.92
2022-10-02T04:03:21.259Z,98.76
2022-10-02T04:06:35.362Z,98.62
2022-10-02T04:09:56.683Z,98.62
2022-10-02T04:13:09.682Z,98.67
2022-10-02T04:16:39.787Z,98.59
2022-10-02T04:19:50.341Z,98.65
2022-10-02T04:23:04.089Z,98.59
2022-10-02T04:26:25.999Z,98.57
2022-10-02T04:29:35.786Z,98.62
2022-10-02T04:32:38.003Z,98.66
2022-10-02T04:35:45.378Z,98.92
2022-10-02T04:38:55.773Z,98.84
2022-10-02T04:42:32.996Z,98.86
2022-10-02T04:45:50.017Z,98.65
2022-10-02T04:49:06.982Z,98.54
2022-10-02T04:52:33.215Z,98.73
2022-10-02T04:55:46.949Z,98.72
2022-10-02T04:59:11.850Z,98.85
2022-10-02T05:02:31.815Z,98.83
2022-10-02T05:05:48.445Z,98.95
2022-10-02T05:09:11.842Z,98.52
2022-10-02T05:12:40.901Z,98.49
2022-10-02T05:15:45.524Z,98.40
2022-10-02T05:19:21.319Z,98.26
2022-10-02T05:22:47.251Z,98.45
2022-10-02T05:26:14.179Z,98.32
2022-10-02T05:29:50.424Z,98.34
2022-10-02T05:33:02.540Z,98.54
2022-10-02T05:36:17.676Z,98.50
2022-10-02T05:39:52.119Z,98.66
2022-10-02T05:43:11.697Z,98.84
2022-10-02T05:46:21.109Z,98.82
2022-10-02T05:49:34.697Z,98.95
2022-10-02T05:52:47.032Z,98.84
2022-10-02T05:56:09.356Z,98.89
2022-10-02T05:59:26.306Z,98.74
2022-10-02T06:02:39.439Z,98.53
2022-10-02T06:05:58.571Z,98.31
2022-10-02T06:09:19.584Z,98.30
2022-10-02T06:12:34.140Z,98.39
2022-10-02T06:15:46.665Z,97.83
2022-10-02T06:19:12.932Z,97.88
2022-10-02T06:22:32.628Z,97.65
2022-10-02T06:25:49.993Z,97.26
2022-10-02T06:29:00.544Z,97.52
2022-10-02T06:32:34.723Z,97.26
2022-10-02T06:36:13.889Z,96.88
2022-10-02T06:39:53.432Z,96.73
2022-10-02T06:43:10.699Z,96.83
2022-10-02T06:46:43.916Z,96.74
2022-10-02T06:49:46.444Z,96.80
2022-10-02T06:52:58.094Z,96.61
2022-10-02T06:56:14.736Z,96.30
2022-10-02T06:59:40.470Z,95.98
2022-10-02T07:03:09.153Z,95.97
2022-10-02T07:06:24.124Z,95.57
2022-10-02T07:09:50.743Z,95.52
2022-10-02T07:13:01.059Z,95.41
2022-10-02T07:16:22.819Z,95.29
2022-10-02T07:19:43.554Z,95.21
2022-10-02T07:23:01.915Z,94.88
2022-10-02T07:26:23.292Z,94.78
2022-10-02T07:29:37.029Z,94.65
2022-10-02T07:32:47.461Z,94.54
2022-10-02T07:35:58.079Z,94.71
2022-10-02T07:39:21.401Z,94.83
2022-10-02T07:42:50.414Z,94.50
2022-10-02T07:46:02.488Z,94.26
2022-10-02T07:49:36.751Z,93.99
2022-10-02T07:52:56.307Z,94.16
2022-10-02T07:56:00.139Z,93.32
2022-10-02T07:59:11.798Z,92.87
2022-10-02T08:02:42.450Z,92.60
2022-10-02T08:05:47.926Z,92.20
2022-10-02T08:08:55.317Z,91.79
2022-10-02T08:12:24.142Z,91.31
2022-10-02T08:15:32.193Z,90.19
2022-10-02T08:19:15.940Z,89.14
2022-10-02T08:22:34.142Z,88.85
2022-10-02T08:26:04.759Z,87.30
2022-10-02T08:29:12.356Z,86.49
2022-10-02T08:32:14.488Z,85.04
2022-10-02T08:35:19.599Z,84.03
2022-10-02T08:38:28.231Z,83.50
2022-10-02T08:41:58.077Z,81.35
2022-10-02T08:45:39.272Z,81.91
2022-10-02T08:48:56.327Z,81.86
2022-10-02T08:53:07.267Z,80.65
2022-10-02T08:56:19.870Z,81.25
2022-10-02T08:59:36.820Z,80.64
2022-10-02T09:03:16.380Z,80.75
2022-10-02T09:06:49.010Z,80.18
2022-10-02T09:10:05.504Z,80.41
2022-10-02T09:13:13.415Z,80.54
2022-10-02T09:16:56.316Z,79.94
2022-10-02T09:20:00.906Z,79.79
2022-10-02T09:23:11.462Z,80.78
2022-10-02T09:26:32.046Z,80.71
2022-10-02T09:29:57.671Z,81.37
2022-10-02T09:33:41.508Z,81.51
2022-10-02T09:36:49.383Z,81.83
2022-10-02T09:40:29.522Z,81.26
2022-10-02T09:44:23.389Z,80.78
2022-10-02T09:47:43.274Z,80.32
2022-10-02T09:51:24.702Z,79.73
2022-10-02T09:54:38.711Z,79.82
2022-10-02T09:58:22.310Z,78.58
2022-10-02T10:01:40.726Z,78.48
2022-10-02T10:05:04.910Z,79.13
2022-10-02T10:08:45.355Z,79.40
2022-10-02T10:12:05.481Z,80.35
2022-10-02T10:15:20.024Z,80.94
2022-10-02T10:18:55.106Z,81.53
2022-10-02T10:22:15.402Z,82.41
2022-10-02T10:25:45.043Z,82.62
2022-10-02T10:29:09.174Z,83.13
2022-10-02T10:32:16.921Z,83.53
2022-10-02T10:35:28.521Z,84.24
2022-10-02T10:38:40.935Z,84.71
2022-10-02T10:41:51.639Z,85.61
2022-10-02T10:45:18.145Z,85.58
2022-10-02T10:49:02.857Z,85.82
2022-10-02T10:52:14.344Z,86.23
2022-10-02T10:55:59.196Z,86.67
2022-10-02T10:59:24.990Z,87.09
2022-10-02T11:02:48.816Z,87.25
2022-10-02T11:06:22.356Z,87.50
2022-10-02T11:09:52.782Z,88.17
2022-10-02T11:13:09.859Z,88.20
2022-10-02T11:16:37.410Z,88.86
2022-10-02T11:20:09.902Z,89.03
2022-10-02T11:24:06.346Z,89.02
2022-10-02T11:27:18.024Z,89.20
2022-10-02T11:30:41.741Z,89.28
2022-10-02T11:33:44.420Z,89.34
2022-10-02T11:37:12.329Z,89.43
2022-10-02T11:40:26.703Z,89.75
2022-10-02T11:43:43.191Z,90.11
2022-10-02T11:47:00.851Z,90.21
2022-10-02T11:50:35.042Z,90.58
2022-10-02T11:53:45.026Z,91.67
2022-10-02T11:56:52.186Z,91.81
2022-10-02T12:00:08.630Z,91.50
2022-10-02T12:03:32.297Z,91.94
2022-10-02T12:07:07.636Z,92.08
2022-10-02T12:10:21.156Z,92.28
2022-10-02T12:14:05.330Z,92.29
2022-10-02T12:17:26.445Z,92.49
2022-10-02T12:21:00.466Z,92.37
2022-10-02T12:24:51.394Z,92.26
2022-10-02T12:28:20.521Z,92.19
2022-10-02T12:31:40.100Z,92.22
2022-10-02T12:38:39.899Z,92.74
2022-10-02T12:42:05.955Z,92.73
2022-10-02T12:45:32.631Z,92.33
2022-10-02T12:49:20.783Z,92.40
2022-10-02T12:52:45.720Z,92.68
2022-10-02T12:56:17.533Z,92.92
2022-10-02T12:59:32.351Z,92.94
2022-10-02T13:03:01.182Z,92.77
2022-10-02T13:06:23.418Z,92.65
2022-10-02T13:09:51.583Z,92.76
2022-10-02T13:13:15.269Z,93.09
2022-10-02T13:16:48.763Z,93.26
2022-10-02T13:20:05.780Z,93.09
2022-10-02T13:23:29.067Z,93.38
2022-10-02T13:26:30.777Z,93.13
2022-10-02T13:29:45.094Z,93.11
2022-10-02T13:33:36.133Z,92.89
2022-10-02T13:37:00.471Z,92.75
2022-10-02T13:40:39.402Z,92.41
2022-10-02T13:44:23.965Z,92.17
2022-10-02T13:47:37.743Z,92.42
2022-10-02T13:50:50.380Z,92.36
2022-10-02T13:54:01.257Z,92.62
2022-10-02T13:57:32.784Z,92.58
2022-10-02T14:01:06.918Z,92.96
2022-10-02T14:04:37.223Z,92.92
2022-10-02T14:07:59.916Z,93.08
2022-10-02T14:11:16.014Z,93.73
2022-10-02T14:14:27.126Z,93.64
2022-10-02T14:17:49.083Z,93.78
2022-10-02T14:20:59.849Z,93.66
2022-10-02T14:24:16.826Z,93.83
2022-10-02T14:27:57.309Z,93.98
2022-10-02T14:31:20.512Z,94.19
2022-10-02T14:34:55.980Z,94.42
2022-10-02T14:38:19.478Z,94.37
2022-10-02T14:42:01.623Z,94.46
2022-10-02T14:45:28.054Z,94.22
2022-10-02T14:49:07.304Z,94.34
2022-10-02T14:52:28.796Z,94.47
2022-10-02T14:56:10.523Z,94.31
2022-10-02T14:59:32.530Z,94.29
2022-10-02T15:02:48.843Z,94.55
2022-10-02T15:06:05.457Z,94.21
2022-10-02T15:09:38.976Z,94.49
2022-10-02T15:13:01.623Z,94.62
2022-10-02T15:17:14.444Z,95.29
2022-10-02T15:20:31.952Z,94.61
2022-10-02T15:23:50.516Z,94.61
2022-10-02T15:27:09.873Z,94.34
2022-10-02T15:30:15.413Z,94.50
2022-10-02T15:33:41.593Z,94.47
2022-10-02T15:37:07.826Z,94.35
2022-10-02T15:40:36.973Z,94.05
2022-10-02T15:44:16.379Z,94.17
2022-10-02T15:47:39.202Z,94.18
2022-10-02T15:50:42.788Z,94.70
2022-10-02T15:53:59.425Z,94.53
2022-10-02T15:57:24.429Z,93.64
2022-10-02T16:01:00.941Z,93.11
2022-10-02T16:04:46.041Z,93.08
2022-10-02T16:08:08.683Z,93.04
2022-10-02T16:11:32.517Z,93.23
2022-10-02T16:15:01.623Z,93.25
2022-10-02T16:18:33.081Z,93.49
2022-10-02T16:22:00.931Z,93.23
2022-10-02T16:25:28.714Z,93.54
2022-10-02T16:29:02.744Z,93.60
2022-10-02T16:32:39.694Z,93.63
2022-10-02T16:36:10.853Z,93.58
2022-10-02T16:39:32.986Z,93.68
2022-10-02T16:42:58.916Z,93.77
2022-10-02T16:46:31.116Z,93.71
2022-10-02T16:50:02.703Z,93.33
2022-10-02T16:53:11.886Z,93.42
2022-10-02T16:56:22.482Z,93.18
2022-10-02T16:59:49.566Z,92.88
2022-10-02T17:03:02.491Z,93.60
2022-10-02T17:06:19.475Z,93.09
2022-10-02T17:09:44.492Z,93.35
2022-10-02T17:13:21.184Z,92.63
2022-10-02T17:16:46.988Z,92.54
2022-10-02T17:19:56.098Z,92.65
2022-10-02T17:23:38.825Z,92.35
2022-10-02T17:26:51.400Z,92.13
2022-10-02T17:30:27.769Z,92.31
2022-10-02T17:33:45.344Z,92.23
2022-10-02T17:37:00.102Z,92.61
2022-10-02T17:40:19.382Z,92.42
2022-10-02T17:43:42.370Z,92.36
2022-10-02T17:47:30.403Z,92.31
2022-10-02T17:50:47.094Z,92.36
2022-10-02T17:54:58.668Z,92.45
2022-10-02T17:58:13.701Z,92.42
2022-10-02T18:01:44.629Z,92.49
2022-10-02T18:05:29.899Z,92.13
2022-10-02T18:09:02.437Z,92.30
2022-10-02T18:12:23.630Z,92.03
2022-10-02T18:16:06.242Z,91.82
2022-10-02T18:19:45.265Z,91.37
2022-10-02T18:23:09.038Z,91.25
2022-10-02T18:26:27.592Z,90.87
2022-10-02T18:29:52.026Z,90.78
2022-10-02T18:33:25.661Z,90.62
2022-10-02T18:36:51.228Z,90.74
2022-10-02T18:40:03.608Z,89.88
2022-10-02T18:43:53.634Z,89.68
2022-10-02T18:47:36.487Z,90.28
2022-10-02T18:51:18.023Z,89.90
2022-10-02T18:54:39.879Z,89.94
2022-10-02T18:58:01.346Z,90.04
2022-10-02T19:01:16.702Z,89.74
2022-10-02T19:05:00.317Z,89.71
2022-10-02T19:08:31.622Z,89.35
2022-10-02T19:11:43.997Z,89.38
2022-10-02T19:14:47.478Z,89.46
2022-10-02T19:18:29.267Z,88.94
2022-10-02T19:21:36.311Z,89.07
2022-10-02T19:24:44.295Z,88.92
2022-10-02T19:27:54.677Z,88.58
2022-10-02T19:31:02.550Z,88.42
2022-10-02T19:34:17.694Z,88.44
2022-10-02T19:37:23.018Z,88.37
2022-10-02T19:40:31.931Z,88.13
2022-10-02T19:43:46.438Z,87.75
2022-10-02T19:46:55.771Z,87.96
2022-10-02T19:50:01.662Z,87.70
2022-10-02T19:53:25.365Z,87.41
2022-10-02T19:56:42.019Z,87.30
2022-10-02T19:59:53.855Z,86.92
2022-10-02T20:02:59.664Z,86.80
2022-10-02T20:06:14.967Z,86.49
2022-10-02T20:09:42.451Z,86.31
2022-10-02T20:12:54.890Z,86.18
2022-10-02T20:16:33.647Z,86.13
2022-10-02T20:19:39.320Z,86.41
2022-10-02T20:23:12.519Z,86.31
2022-10-02T20:26:14.885Z,86.14
2022-10-02T20:29:26.448Z,86.38
2022-10-02T20:32:36.652Z,86.26
2022-10-02T20:35:48.143Z,86.27
2022-10-02T20:39:00.095Z,86.15
2022-10-02T20:42:15.333Z,86.31
2022-10-02T20:45:17.457Z,86.09
2022-10-02T20:49:08.459Z,86.10
2022-10-02T20:52:43.165Z,86.35
2022-10-02T20:56:05.889Z,86.42
2022-10-02T20:59:24.885Z,86.36
2022-10-02T21:03:06.186Z,86.08
2022-10-02T21:06:22.859Z,86.32
2022-10-02T21:09:30.455Z,86.42
2022-10-02T21:12:44.499Z,86.66
2022-10-02T21:16:14.026Z,86.48
2022-10-02T21:19:37.446Z,86.50
2022-10-02T21:23:40.353Z,86.58
2022-10-02T21:27:27.997Z,86.67
2022-10-02T21:30:50.195Z,86.87
2022-10-02T21:34:20.619Z,86.99
2022-10-02T21:37:47.117Z,87.38
2022-10-02T21:41:10.632Z,87.67
2022-10-02T21:44:34.205Z,87.64
2022-10-02T21:48:06.688Z,87.90
2022-10-02T21:52:00.687Z,88.18
2022-10-02T21:55:30.238Z,88.03
2022-10-02T21:58:46.899Z,88.20
2022-10-02T22:02:15.784Z,88.38
2022-10-02T22:06:05.353Z,88.47
2022-10-02T22:09:20.615Z,88.46
2022-10-02T22:12:41.059Z,88.56
2022-10-02T22:16:22.161Z,88.84
2022-10-02T22:19:46.540Z,88.73
2022-10-02T22:23:14.705Z,88.84
2022-10-02T22:26:29.770Z,88.49
2022-10-02T22:29:49.960Z,88.80
2022-10-02T22:33:13.994Z,88.49
2022-10-02T22:36:32.106Z,88.72
2022-10-02T22:39:40.823Z,88.58
2022-10-02T22:42:56.237Z,88.92
2022-10-02T22:46:10.301Z,89.17
2022-10-02T22:49:27.170Z,88.76
2022-10-02T22:52:51.187Z,88.63
2022-10-02T22:55:57.626Z,88.95
2022-10-02T22:59:12.005Z,88.81
2022-10-02T23:02:37.395Z,88.71
2022-10-02T23:05:54.312Z,88.43
2022-10-02T23:09:21.131Z,88.46
2022-10-02T23:12:45.114Z,88.22
2022-10-02T23:15:57.937Z,88.22
2022-10-02T23:19:20.044Z,88.38
2022-10-02T23:22:36.432Z,88.43
2022-10-02T23:25:51.901Z,88.65
2022-10-02T23:29:18.320Z,88.77
2022-10-02T23:32:38.463Z,88.93
2022-10-02T23:36:03.223Z,88.61
2022-10-02T23:39:12.243Z,89.08
2022-10-02T23:42:21.875Z,89.08
2022-10-02T23:45:42.749Z,88.96
2022-10-02T23:48:45.685Z,88.98
2022-10-02T23:52:30.035Z,89.40
2022-10-02T23:55:40.441Z,89.48
2022-10-02T23:59:03.735Z,89.40
